Station CRVA2 - 9454050 - Cordova, AK Image indicating link to RSS feed of recent meteorological observations for station CRVA2


Conditions at CRVA2 as of
(1:48 pm AKDT)
2148 GMT on 05/03/2026:
     

Click on the graph icon in the table below to see a time series plot of the last five days of that observation.

5-day plot - Wind Direction Wind Direction (WDIR):ESE ( 120 deg true )
5-day plot - Wind Speed Wind Speed (WSPD): 1.0 kts
5-day plot - Wind Gust Wind Gust (GST): 6.0 kts
5-day plot - Atmospheric Pressure Atmospheric Pressure (PRES):30.16 in
5-day plot - Wind Speed at 10 Meters Wind Speed at 10 meters (WSPD10M): 1.9 kts
5-day plot - Wind Speed at 20 Meters Wind Speed at 20 meters (WSPD20M): 1.9 kts
5-day plot -  Wind Speed, Wind Gust and Atmospheric Pressure Combined plot of Wind Speed, Gust, and Air Pressure
NOS Water Level Observation Network Water Level
Previous observations
TIME
(AKDT)
5-day plot - Wind Direction
WDIR
 
5-day plot - Wind Speed
WSPD
kts
5-day plot - Wind Gust
GST
kts
5-day plot - Wave Height
WVHT
ft
5-day plot - Dominant Wave Period
DPD
sec
5-day plot - Average Wave Period
APD
sec
5-day plot - Mean Wave Direction
MWD
 
5-day plot - Atmospheric Pressure
PRES
in
5-day plot - Pressure Tendency
PTDY
in
5-day plot - Air Temperature
ATMP
°F
5-day plot - Water Temperature
WTMP
°F
5-day plot - Dew Point
DEWP
°F
5-day plot - Salinity
SAL
psu
5-day plot - Visibility
VIS
nmi
5-day plot - Tide (above MLLW)
TIDE
ft
2026-05-03 01:42 pmSSW 4.1 5.1----30.17-------
2026-05-03 01:36 pm SW 1.9 2.9----30.17-------
2026-05-03 01:30 pm N 1.0 5.1----30.17- 41.5 41.0----
2026-05-03 01:24 pm N 4.1 11.1----30.17- 42.3 41.0----
2026-05-03 01:18 pmNNW 6.0 9.9----30.17-- 41.0----
2026-05-03 01:12 pmNNE 6.0 8.0----30.17-- 41.0----
2026-05-03 01:06 pmSSW 1.0 2.9----30.17-- 41.0----
2026-05-03 01:00 pm E 1.9 4.1----30.17-0.01 41.2 41.0----
2026-05-03 12:48 pmENE 1.9 2.9----30.17-- 41.0----
2026-05-03 12:42 pm NE 2.9 5.1----30.17-- 41.0----
2026-05-03 12:36 pm N 2.9 4.1----30.18-- 41.0----
2026-05-03 12:30 pm N 2.9 5.1----30.18- 40.6 41.0----
2026-05-03 12:24 pmNNW 2.9 4.1----30.17- 40.5 41.0----
2026-05-03 12:18 pm NE 1.9 4.1----30.17-- 41.0----
2026-05-03 12:12 pm NW 4.1 5.1----30.17-- 41.0----
2026-05-03 12:06 pm N 2.9 5.1----30.17-- 41.0----
2026-05-03 12:00 pm NE 1.9 7.0----30.17+0.00 40.5 41.0----
2026-05-03 11:54 am N 5.1 6.0----30.18- 40.3 41.0----
2026-05-03 11:48 am NE 1.9 4.1----30.18-------
2026-05-03 11:42 am- 0.0 2.9----30.18-------
2026-05-03 11:36 am- 0.0 1.9----30.18-------
2026-05-03 11:30 am- 0.0 1.9----30.18- 40.5 41.0----
2026-05-03 11:24 amENE 1.0 1.9----30.18- 40.1 41.0----
2026-05-03 11:18 am E 1.0 1.9----30.18-- 41.0----
2026-05-03 11:12 amENE 1.9 2.9----30.18-- 41.0----
2026-05-03 11:06 am N 1.0 1.9----30.18-- 41.0----
2026-05-03 11:00 am E 1.0 1.9----30.18+0.00 39.7 41.0----
2026-05-03 10:54 amNNE 1.0 1.0----30.18- 39.7 41.0----
2026-05-03 10:48 am- 0.0 1.9----30.18-- 41.0----
2026-05-03 10:42 am- 0.0 1.0----30.18-- 41.0----
2026-05-03 10:36 am- 0.0 1.9----30.18-- 41.0----
2026-05-03 10:30 am- 0.0 1.0----30.18- 39.7 41.0----
2026-05-03 10:24 am- 0.0 0.0----30.18- 39.7 41.0----
2026-05-03 10:18 am- 0.0 0.0----30.19-- 41.0----
2026-05-03 10:12 am- 0.0 1.9----30.18-- 41.0----
2026-05-03 10:06 am- 0.0 2.9----30.18-- 41.0----
2026-05-03 10:00 am NE 1.9 2.9----30.18-0.01 39.6 41.0----
2026-05-03 09:54 am NE 1.9 2.9----30.18- 39.4 41.0----
2026-05-03 09:48 am N 1.9 1.9----30.18-------
2026-05-03 09:42 amNNE 1.9 2.9----30.18-------
2026-05-03 09:36 am N 2.9 2.9----30.18-------
2026-05-03 09:30 amNNE 1.9 2.9----30.18- 39.4 41.0----
2026-05-03 09:24 amNNE 1.9 2.9----30.18- 39.4 41.0----
2026-05-03 09:18 amNNE 1.9 4.1----30.18-------
2026-05-03 09:12 am NE 4.1 4.1----30.18-------
2026-05-03 09:06 am NE 1.9 2.9----30.18-------
2026-05-03 09:00 amNNE 4.1 4.1----30.18-0.03 39.4 41.0----
2026-05-03 08:54 amENE 1.9 4.1----30.18- 39.4 41.0----
2026-05-03 08:48 amNNE 2.9 4.1----30.18-- 41.0----
2026-05-03 08:42 am N 1.9 4.1----30.18-- 41.0----
2026-05-03 08:36 am NE 2.9 6.0----30.17-- 41.0----
2026-05-03 08:30 amNNE 4.1 5.1----30.17- 39.4 41.0----
2026-05-03 08:24 amNNW 2.9 4.1----30.18- 39.4 41.0----
2026-05-03 08:18 am N 1.9 4.1----30.18-------
2026-05-03 08:12 am E 1.9 4.1----30.18-------
2026-05-03 08:06 am NE 1.9 2.9----30.18-------
2026-05-03 08:00 amNNE 1.9 1.9----30.18-0.03 39.2 41.0----
2026-05-03 07:54 am- 0.0 4.1----30.18- 39.2 41.0----
2026-05-03 07:48 amNNE 1.9 4.1----30.18-- 41.0----
2026-05-03 07:42 am N 2.9 4.1----30.18-- 41.0----
2026-05-03 07:36 am- 0.0 2.9----30.19-- 41.0----
2026-05-03 07:30 am N 1.9 4.1----30.19- 39.2 41.0----
2026-05-03 07:24 amNNE 1.9 2.9----30.19- 39.2 41.0----
2026-05-03 07:18 am- 0.0 2.9----30.19-- 41.0----
2026-05-03 07:12 am NE 2.9 4.1----30.19-- 41.0----
2026-05-03 07:06 amENE 1.9 4.1----30.19-- 41.0----
2026-05-03 07:00 am NE 1.9 2.9----30.19-0.02 39.2 41.0----
2026-05-03 06:54 amENE 1.9 2.9----30.19- 39.0 41.0----
2026-05-03 06:48 am E 1.9 2.9----30.19-------
2026-05-03 06:42 am N 1.9 2.9----30.19-------
2026-05-03 06:36 am E 1.9 1.9----30.20-------
2026-05-03 06:30 am E 1.0 1.9----30.20- 39.0 41.0----
2026-05-03 06:24 am- 0.0 1.9----30.21- 39.0 41.0----
2026-05-03 06:18 am- 0.0 1.9----30.20-- 41.0----
2026-05-03 06:12 amENE 1.9 2.9----30.20-- 41.0----
2026-05-03 06:06 amENE 1.9 1.9----30.20-- 41.0----
2026-05-03 06:00 am- 0.0 1.0----30.20-0.04 39.0 41.0----
2026-05-03 05:54 am E 1.0 1.9----30.20- 38.8 41.0----
2026-05-03 05:48 am E 1.9 2.9----30.20-- 41.0----
2026-05-03 05:42 amENE 1.9 2.9----30.20-- 41.0----
2026-05-03 05:36 am NE 1.9 1.9----30.20-- 41.0----
2026-05-03 05:30 amENE 1.9 1.9----30.20- 38.8 41.0----
2026-05-03 05:24 am- 0.0 1.9----30.21- 38.7 41.0----
2026-05-03 05:12 amENE 1.0 1.9----30.21-------
2026-05-03 05:06 am- 0.0 0.0----30.21-------
2026-05-03 05:00 am- 0.0 1.0----30.21-0.04 39.0 40.8----
2026-05-03 04:54 am- 0.0 0.0----30.22- 38.8 40.8----
2026-05-03 04:48 am- 0.0 1.0----30.21-- 40.8----
2026-05-03 04:42 am NE 1.0 1.0----30.21-- 40.8----
2026-05-03 04:36 am- 0.0 1.9----30.21-- 40.8----
2026-05-03 04:30 am E 1.9 1.9----30.21- 39.0 40.8----
2026-05-03 04:24 am E 1.0 1.0----30.22- 39.0 40.8----
2026-05-03 04:18 am- 0.0 0.0----30.22-- 41.0----
2026-05-03 04:12 am- 0.0 1.0----30.22-- 41.0----
2026-05-03 04:06 am- 0.0 1.0----30.22-- 41.0----
2026-05-03 04:00 am- 0.0 1.0----30.22-0.04 39.2 41.0----
2026-05-03 03:54 am- 0.0 1.0----30.22- 39.2 41.0----
2026-05-03 03:48 am- 0.0 1.9------------
2026-05-03 03:42 amENE 1.9 1.9------------
2026-05-03 03:36 amENE 1.9 2.9------------
2026-05-03 03:30 am NE 1.9 4.1----30.24- 39.7 41.0----
2026-05-03 03:24 amNNE 1.9 2.9----30.24- 39.9 41.0----
2026-05-03 03:18 am E 1.9 4.1----30.24-- 41.0----
2026-05-03 03:06 am E 4.1 7.0----30.24-- 41.0----
2026-05-03 03:00 amESE 5.1 7.0----30.24-0.01 40.8 41.0----
2026-05-03 02:54 amESE 5.1 8.9----30.24- 41.0 41.0----
2026-05-03 02:48 am E 5.1 8.9----30.24-- 41.0----
2026-05-03 02:42 am E 5.1 8.0----30.25-- 41.0----
2026-05-03 02:36 am SE 1.9 6.0----30.25-- 41.0----
2026-05-03 02:30 am E 2.9 8.9----30.25- 41.2 41.0----
2026-05-03 02:24 amENE 4.1 8.0----30.25- 41.2 41.0----
2026-05-03 02:18 am E 1.0 9.9----30.25-------
2026-05-03 02:12 am E 5.1 8.9----30.25-------
2026-05-03 02:06 am- 0.0 2.9----30.25-------
2026-05-03 02:00 am- 0.0 5.1----30.25+0.00 41.2 41.0----
2026-05-03 01:54 am W 1.0 5.1----30.25- 41.2 41.0----
2026-05-03 01:48 am N 1.0 11.1----30.25-- 41.0----
2026-05-03 01:42 amENE 5.1 9.9----30.25-- 41.0----
2026-05-03 01:36 am NE 2.9 5.1----30.25-- 41.0----
2026-05-03 01:30 am E 4.1 7.0----30.25- 41.4 41.0----
2026-05-03 01:24 am E 2.9 7.0----30.25- 41.5 41.0----
2026-05-03 01:18 am SE 4.1 8.0----30.25-------
2026-05-03 01:12 am NE 2.9 7.0----30.25-------
2026-05-03 01:06 amESE 2.9 8.9----30.25-------
2026-05-03 01:00 amSSE 4.1 8.0----30.25+0.00 41.9 41.0----
2026-05-03 12:54 am S 5.1 8.9----30.25- 42.1 41.0----
2026-05-03 12:48 am E 2.9 7.0----30.25-- 41.0----
2026-05-03 12:42 amSSW 1.0 5.1----30.25-- 41.0----
2026-05-03 12:36 am S 1.9 2.9----30.25-- 41.0----
2026-05-03 12:30 amWSW 2.9 6.0----30.25- 42.3 41.0----
2026-05-03 12:24 am S 2.9 7.0----30.25- 42.3 41.0----
2026-05-03 12:18 am- 0.0 8.9----30.26-------
2026-05-03 12:12 amNNW 1.9 9.9----30.26-------
2026-05-03 12:06 am N 1.9 7.0----30.26-------
2026-05-03 12:00 am SW 2.9 8.0----30.26+0.03 42.6 41.0----
2026-05-02 11:54 pm SW 2.9 6.0----30.26- 42.8 41.0----
2026-05-02 11:42 pm E 1.9 6.0----30.26-- 41.0----
2026-05-02 11:36 pm- 0.0 7.0----30.26-- 41.0----
2026-05-02 11:30 pm E 1.0 5.1----30.25- 43.0 41.0----
2026-05-02 11:24 pm SW 4.1 8.9----30.25- 43.0 41.0----
2026-05-02 11:18 pm NW 4.1 8.0----30.25-------
2026-05-02 11:12 pmENE 2.9 6.0----30.25-------
2026-05-02 11:06 pmWSW 1.0 5.1----30.25-------
2026-05-02 11:00 pm W 2.9 7.0----30.25+0.02 43.2 41.0----
2026-05-02 10:48 pm N 1.9 11.1----30.25-------
2026-05-02 10:36 pm S 1.0 6.0----30.25-------
2026-05-02 10:30 pm N 2.9 6.0----30.25- 43.5 41.0----
2026-05-02 10:24 pm W 1.9 6.0----30.25- 43.7 41.0----
2026-05-02 10:18 pm NE 2.9 8.9----30.25-------
2026-05-02 10:12 pm S 4.1 8.0----30.24-------
2026-05-02 10:06 pmENE 5.1 8.0----30.25-------
2026-05-02 10:00 pmESE 6.0 9.9----30.25+0.02 43.3 41.2----
2026-05-02 09:54 pm NE 4.1 9.9----30.24- 43.3 41.2----
2026-05-02 09:48 pm NE 5.1 9.9----30.24-- 41.2----
2026-05-02 09:42 pmESE 1.9 4.1----30.24-- 41.2----
2026-05-02 09:36 pmNNE 1.9 6.0----30.24-- 41.2----
2026-05-02 09:30 pmWNW 4.1 7.0----30.24- 43.9 41.2----
2026-05-02 09:24 pmNNE 4.1 8.0----30.24- 43.9 41.2----
2026-05-02 09:18 pmENE 4.1 9.9----30.24-------
2026-05-02 09:12 pmESE 4.1 9.9----30.24-------
2026-05-02 09:06 pm E 5.1 8.9----30.24-------
2026-05-02 09:00 pmSSE 5.1 9.9----30.23+0.00 43.9 41.2----
2026-05-02 08:54 pm NE 6.0 8.9----30.23- 43.9 41.2----
2026-05-02 08:48 pmSSW 1.0 6.0----30.23-- 41.2----
2026-05-02 08:42 pmESE 2.9 12.0----30.23-- 41.2----
2026-05-02 08:36 pmSSE 5.1 9.9----30.23-- 41.2----
2026-05-02 08:30 pmENE 4.1 8.0----30.23- 43.9 41.0----
2026-05-02 08:24 pmENE 2.9 8.0----30.23- 43.9 41.0----
2026-05-02 08:18 pm E 2.9 15.0----30.23-------
2026-05-02 08:12 pm E 9.9 18.1----30.22-------
2026-05-02 08:06 pmENE 8.0 17.1----30.22-------
2026-05-02 08:00 pm E 8.0 19.0----30.22+0.00 43.9 41.0----
2026-05-02 07:54 pmNNE 4.1 9.9----30.22- 43.9 41.0----
2026-05-02 07:48 pm W 4.1 8.9----30.22-------
2026-05-02 07:42 pmNNW 1.0 5.1----30.23-------
2026-05-02 07:36 pm N 1.9 2.9----30.23-------
2026-05-02 07:30 pmENE 1.0 8.0----30.23- 44.1 41.0----
2026-05-02 07:24 pmNNE 2.9 5.1----30.24- 43.7 41.0----
2026-05-02 07:18 pm E 1.9 6.0----30.24-- 41.2----
2026-05-02 07:12 pmWSW 2.9 5.1----30.24-- 41.2----
2026-05-02 07:06 pm- 0.0 7.0----30.24-- 41.2----
2026-05-02 07:00 pmNNW 2.9 6.0----30.23+0.00 44.2 41.2----
2026-05-02 06:54 pmWNW 1.9 5.1----30.23- 44.1 41.2----
2026-05-02 06:48 pm N 2.9 5.1----30.23-- 41.2----
2026-05-02 06:42 pm N 1.9 4.1----30.23-- 41.2----
2026-05-02 06:36 pm W 1.0 7.0----30.23-- 41.0----
2026-05-02 06:30 pm SW 2.9 8.0----30.24- 44.6 41.0----
2026-05-02 06:24 pmSSW 2.9 6.0----30.24- 44.6 41.0----
2026-05-02 06:18 pm SW 1.9 6.0----30.24-- 41.0----
2026-05-02 06:12 pmNNE 2.9 8.0----30.23-- 41.0----
2026-05-02 06:06 pm- 0.0 5.1----30.23-- 41.0----
2026-05-02 06:00 pm E 1.9 4.1----30.23+0.02 44.8 41.0----
2026-05-02 05:54 pmENE 1.9 5.1----30.24- 44.6 41.0----
2026-05-02 05:48 pmESE 2.9 6.0----30.24-- 41.2----
2026-05-02 05:42 pm E 5.1 8.9----30.24-- 41.2----
2026-05-02 05:36 pm NW 1.0 1.9----30.24-- 41.0----
2026-05-02 05:30 pm S 2.9 7.0----30.24- 45.0 41.0----
2026-05-02 05:24 pm E 5.1 8.0----30.23- 45.0 41.0----
2026-05-02 05:18 pm SW 1.0 5.1----30.23-------
2026-05-02 05:12 pmSSE 4.1 7.0----30.22-------
2026-05-02 05:06 pmENE 1.0 5.1----30.22-------
2026-05-02 05:00 pm SW 2.9 6.0----30.22+0.03 45.3 41.0----
2026-05-02 04:54 pm W 2.9 6.0----30.22- 45.3 41.0----
2026-05-02 04:48 pm NE 1.0 5.1----30.22-------
2026-05-02 04:42 pmWSW 1.9 7.0----30.22-------
2026-05-02 04:36 pm SW 4.1 9.9----30.22-------
2026-05-02 04:30 pm SW 4.1 8.9----30.22- 45.0 41.0----
2026-05-02 04:24 pmWSW 5.1 6.0----30.23- 45.0 41.0----
2026-05-02 04:18 pmSSW 1.0 6.0----30.23-- 41.0----
2026-05-02 04:12 pm SW 2.9 7.0----30.24-- 41.0----
2026-05-02 04:06 pmSSW 1.9 8.9----30.23-- 41.0----
2026-05-02 04:00 pmWSW 4.1 8.0----30.23+0.04 45.0 41.0----
2026-05-02 03:54 pmSSW 4.1 7.0----30.23- 45.0 41.0----
2026-05-02 03:48 pm SW 5.1 12.0----30.22-------
2026-05-02 03:42 pmSSW 2.9 5.1----30.22-------
2026-05-02 03:36 pmWSW 1.9 5.1----30.22-------
2026-05-02 03:30 pm S 1.0 5.1----30.22- 45.5 41.0----
2026-05-02 03:24 pmSSW 8.0 12.0----30.22- 44.8 41.0----
2026-05-02 03:18 pmSSW 5.1 9.9----30.22-- 41.0----
2026-05-02 03:12 pm E 4.1 8.9----30.22-- 41.0----
2026-05-02 03:06 pmSSW 2.9 11.1----30.21-- 41.0----
2026-05-02 03:00 pm SW 2.9 5.1----30.21+0.04 44.8 41.0----
2026-05-02 02:54 pm SW 2.9 6.0----30.22- 44.8 41.0----
2026-05-02 02:48 pmSSW 2.9 8.9----30.22-- 41.0----
2026-05-02 02:42 pmSSW 6.0 8.0----30.22-- 41.0----
2026-05-02 02:36 pmSSE 2.9 6.0----30.21-- 41.0----
2026-05-02 02:30 pm SW 2.9 9.9----30.21- 44.4 41.0----
2026-05-02 02:24 pm E 5.1 8.9----30.20- 44.4 41.0----
2026-05-02 02:18 pm S 5.1 8.9----30.20-------
2026-05-02 02:12 pm S 1.9 6.0----30.20-------
2026-05-02 02:06 pm S 4.1 11.1----30.20-------
2026-05-02 02:00 pmSSW 6.0 12.0----30.20+0.07 44.2 41.0----
2026-05-02 01:54 pm SE 4.1 6.0----30.20- 44.1 41.0----